AirNav   ATP
 
 988 users online  

CL77 Bonny Doon Airport
Santa Cruz, California, USA

GOING TO SANTA CRUZ?


FAA INFORMATION EFFECTIVE 08 NOVEMBER 2018

Location

FAA Identifier: CL77
Lat/Long: 37-04-13.8130N / 122-07-38.8760W
37-04.230217N / 122-07.647933W
37.0705036 / -122.1274656
(estimated)
Elevation: 2020 ft. / 616 m (estimated)
Variation: 16E (1980)
From city: 8 miles NW of SANTA CRUZ, CA
Time zone: UTC -8 (UTC -7 during Daylight Saving Time)
Zip code: 95060

Airport Operations

Airport use: Private use. Permission required prior to landing
Activation date: 07/1986
Control tower: no
ARTCC: OAKLAND CENTER
FSS: OAKLAND FLIGHT SERVICE STATION
Attendance: CONTINUOUS
Wind indicator: yes
Segmented circle: yes

Airport Communications

WX ASOS at WVI (18 nm SE): 132.275 (831-724-8794)
WX ASOS at SJC (20 nm NE): 126.95 (408-969-0838)

Nearby radio navigation aids

VOR radial/distance  VOR name  Freq  Var
SJCr190/20.2SAN JOSE VOR/DME114.1016E
OSIr142/20.7WOODSIDE VOR/DME113.9017E
SFOr143/35.0SAN FRANCISCO VOR/DME115.8017E
SNSr297/35.1SALINAS VORTAC117.3017E
OAKr156/39.6OAKLAND VOR/DME116.8017E

Airport Services

Runway Information

Runway 12/30

Dimensions: 2200 x 50 ft. / 671 x 15 m
Surface: asphalt
RUNWAY 12  RUNWAY 30
Traffic pattern: leftleft

Airport Ownership and Management from official FAA records

Ownership: Privately-owned
Owner: BONNY DOON AIRPORT LLC
8647 EMPIRE GRADE
SANTA CRUZ, CA 95060
Phone 415-764-2721
C/O MARGARET LIP
Manager: PHILLIP TRISSELL
11530 EMPIRE GRADE
SANTA CRUZ, CA 95060
Phone 831-254-5111

Airport Operational Statistics

Aircraft based on the field: 2
Single engine airplanes: 2
    

Additional Remarks

TREES SURROUNDING ARPT; HIGH TRRN NORTH; USE RWY 30 FOR LANDING; RWY 12 FOR TKOF.
FOR CD CTC NORCAL APCH AT 916-361-3748.

Instrument Procedures

There are no published instrument procedures at CL77.

Some nearby airports with instrument procedures:

KWVI - Watsonville Municipal Airport (18 nm SE)
KSJC - Norman Y Mineta San Jose International Airport (20 nm NE)
KNUQ - Moffett Federal Airfield (21 nm N)
KRHV - Reid-Hillview Airport of Santa Clara County (22 nm NE)
KPAO - Palo Alto Airport (23 nm N)
 
Loc | Ops | Rwys | IFR | FBO | Links
Com | Nav | Svcs | Stats | Notes


 
Area around CL77 (Bonny Doon Airport)
 
Road maps at: MapQuest Bing Google
 
Aerial photo
WARNING: Photo may not be current or correct
Aerial photo of CL77 (Bonny Doon Airport)
Do you have a better or more recent aerial photo of Bonny Doon Airport that you would like to share? If so, please send us your photo.

 
Sectional chart

 
Airport distance calculator
Flying to Bonny Doon Airport? Find the distance to fly.

From to CL77

Sunrise and sunset
Times for 18-Nov-2018
 Local
(UTC-8)
 Zulu
(UTC)
Morning civil twilight06:2414:24
Sunrise06:5114:51
Sunset16:5600:56
Evening civil twilight17:2401:24

Current date and time
Zulu (UTC)  18-Nov-2018 19:39:47
Local (UTC-8)  18-Nov-2018 11:39:47
 
METAR
KWVI 
18nm SE 
181853Z AUTO 00000KT 4SM HZ CLR 13/07 A3008 RMK AO2 SLP184 T01280067
KSJC 
20nm NE 
181905Z 00000KT 1 3/4SM HZ FEW001 SCT008 BKN120 11/08 A3009 RMK AO2 FU FEW001 T01110078 $
KRHV 
21nm NE 
181847Z 00000KT 1 1/2SM BR FU BKN007 12/09 A3008
KNUQ 
21nm N 
181856Z 00000KT 2SM FU BKN007 11/08 A3010 RMK AO2 SLP196 T01060083
KPAO 
24nm N 
181847Z 00000KT 1 1/2SM FU OVC005 11/09 A3011
KE16 
25nm E 
181910Z AUTO 30003KT 3SM HZ CLR 12/07 A3009 RMK AO2
KSQL 
27nm N 
181847Z 00000KT 1 1/2SM BR FU OVC006 10/09 A3010
KOAR 
30nm SE 
134.025 831-384-2967
No observation available
KHAF 
32nm NW 
181920Z AUTO 25006KT 4SM HZ CLR 14/09 A3007 RMK AO2
KMRY 
32nm SE 
181854Z 25004KT 4SM HZ FU CLR 15/08 A3007 RMK AO2 SLP194 T01500078
TAF
KSJC 
20nm NE 
181738Z 1818/1918 10003KT 2SM HZ FEW001 OVC006 FM181915 12004KT 3SM HZ SCT009 FM182100 30005KT 3SM FU HZ FEW015 SCT200 FM190400 VRB03KT 3SM FU HZ FEW015 SCT200 FM191300 12004KT 2SM HZ SCT010 SCT200
NOTAMs
Click for the latest NOTAMs
NOTAMs are issued by the DoD/FAA and will open in a separate window not controlled by AirNav.

 

 
 

Would you like to see your business listed on this page?

 If your business provides an interesting product or service to pilots, flight crews, aircraft, or users of the Bonny Doon Airport, you should consider listing it here.  To start the listing process, click on the button below
 
Add a business
 

Other Pages about Bonny Doon Airport

Update a link
 
Copyright © AirNav, LLC. All rights reserved. Privacy Policy  Contact